Terminal Aerodrome Forecast
Issued by NWS Duluth, MN

Home | Current Version | Previous Version | Text Only | Print | Product List | Glossary On
Versions: 1 2 3 4 5 6 7 8 9 10 11 12 13 14 15 16 17 18 19 20 21 22 23 24 25
000
FTUS43 KDLH 261500 AAA
TAFDLH
TAF AMD
KDLH 261501Z 2615/2712 36008KT P6SM -SN BKN070 BKN090
      TEMPO 2615/2616 BKN035
     FM262000 35012KT P6SM BKN035 OVC080
     FM270200 34012KT P6SM SCT080=

USA.gov is the U.S. government's official web portal to all federal, state and local government web resources and services.